Time;durP1;ratioP1;P1;durP2;ratioP2;P2;SDS_P1;SDS_P2;PMS_P1;PMS_P2;Temp;Humidity;BMP_temperature;BMP_pressure;BME280_temperature;BME280_humidity;BME280_pressure;Samples;Min_cycle;Max_cycle;Signal;HPM_P1;HPM_P2
2022/04/19 00:01:13;;;;;;;4.30;3.90;;;10.30;58.70;;;;;;5092520;28;20227;-63
2022/04/19 00:03:40;;;;;;;3.85;3.38;;;10.20;58.80;;;;;;5074455;28;20253;-63
2022/04/19 00:06:07;;;;;;;5.72;3.40;;;10.20;58.90;;;;;;5072582;28;20239;-63
2022/04/19 00:08:34;;;;;;;4.53;3.05;;;10.20;59.10;;;;;;5073119;28;20230;-63
2022/04/19 00:11:02;;;;;;;2.55;2.28;;;10.10;59.20;;;;;;5072849;28;20224;-63
2022/04/19 00:13:30;;;;;;;3.28;2.90;;;10.10;59.40;;;;;;5078029;28;21016;-63
2022/04/19 00:15:57;;;;;;;2.83;2.55;;;10.10;59.50;;;;;;5093082;28;20234;-63
2022/04/19 00:18:25;;;;;;;3.17;2.60;;;10.00;59.70;;;;;;5091952;28;20237;-63
2022/04/19 00:20:52;;;;;;;4.85;2.53;;;10.00;59.80;;;;;;5092789;28;20231;-63
2022/04/19 00:23:19;;;;;;;2.80;2.60;;;9.90;61.30;;;;;;5092549;28;20220;-64
2022/04/19 00:25:50;;;;;;;3.80;2.47;;;9.90;61.60;;;;;;5092814;28;20692;-62
2022/04/19 00:28:17;;;;;;;2.67;2.47;;;9.90;62.00;;;;;;5092258;28;20704;-63
2022/04/19 00:30:46;;;;;;;2.63;2.42;;;9.90;61.90;;;;;;5092782;28;20676;-63
2022/04/19 00:33:12;;;;;;;5.20;2.30;;;9.80;62.10;;;;;;5092062;28;20606;-63
2022/04/19 00:35:39;;;;;;;3.75;2.40;;;9.80;62.40;;;;;;5092622;28;20219;-62
2022/04/19 00:38:06;;;;;;;3.35;2.40;;;9.80;62.40;;;;;;5092507;28;20561;-63
2022/04/19 00:40:34;;;;;;;4.18;2.55;;;9.80;62.70;;;;;;5092503;28;20223;-63
2022/04/19 00:43:01;;;;;;;3.40;1.92;;;9.80;62.80;;;;;;5092712;28;20215;-62
2022/04/19 00:45:31;;;;;;;2.72;2.25;;;9.80;63.00;;;;;;5092165;28;20216;-63
2022/04/19 00:47:59;;;;;;;3.78;2.50;;;9.80;62.80;;;;;;5092514;28;20261;-63
2022/04/19 00:50:26;;;;;;;2.20;2.00;;;9.70;62.90;;;;;;5091935;28;20242;-63
2022/04/19 00:52:53;;;;;;;2.88;2.50;;;9.70;63.10;;;;;;5092452;28;20754;-62
2022/04/19 00:55:20;;;;;;;2.40;2.20;;;9.60;63.40;;;;;;5092209;28;20231;-63
2022/04/19 00:57:47;;;;;;;2.53;2.10;;;9.70;63.50;;;;;;5092304;28;20257;-63
2022/04/19 01:00:15;;;;;;;2.45;2.25;;;9.60;63.90;;;;;;5092219;28;20285;-63
2022/04/19 01:02:42;;;;;;;3.20;2.33;;;9.60;64.00;;;;;;5092187;28;20224;-63
2022/04/19 01:05:11;;;;;;;2.40;2.10;;;9.60;64.30;;;;;;5092015;28;20246;-64
2022/04/19 01:07:39;;;;;;;2.55;2.30;;;9.50;64.50;;;;;;5092479;28;20677;-63
2022/04/19 01:10:07;;;;;;;3.63;2.08;;;9.50;65.00;;;;;;5092350;28;20610;-63
2022/04/19 01:15:18;;;;;;;5.80;3.10;;;9.50;65.00;;;;;;5050729;28;20228;-63
2022/04/19 01:17:45;;;;;;;2.40;2.20;;;9.40;65.30;;;;;;5072266;28;20221;-63
2022/04/19 01:20:14;;;;;;;2.47;2.28;;;9.40;65.50;;;;;;5071441;28;20725;-63
2022/04/19 01:22:43;;;;;;;2.60;2.40;;;9.30;65.70;;;;;;5072017;28;20235;-63
2022/04/19 01:25:12;;;;;;;2.40;2.20;;;9.20;66.20;;;;;;5072134;28;20235;-62
2022/04/19 01:27:39;;;;;;;5.72;3.55;;;9.20;66.50;;;;;;5071703;28;20235;-62
2022/04/19 01:30:09;;;;;;;2.25;2.05;;;9.20;66.50;;;;;;5074583;28;20228;-64
2022/04/19 01:32:37;;;;;;;2.20;1.80;;;9.20;67.00;;;;;;5075109;28;20231;-64
2022/04/19 01:35:11;;;;;;;3.55;2.28;;;9.10;67.20;;;;;;5075490;28;20293;-63
2022/04/19 01:37:40;;;;;;;3.38;2.10;;;9.10;67.10;;;;;;5075112;28;20242;-64
2022/04/19 01:40:18;;;;;;;3.28;2.67;;;9.10;67.70;;;;;;5075303;28;20247;-63
2022/04/19 01:42:46;;;;;;;5.40;3.60;;;9.00;67.90;;;;;;5075163;28;20577;-64
2022/04/19 01:45:14;;;;;;;2.80;2.20;;;9.00;68.00;;;;;;5075379;28;20613;-63
2022/04/19 01:47:41;;;;;;;3.10;2.35;;;9.00;68.20;;;;;;5074712;28;20232;-64
2022/04/19 01:50:10;;;;;;;4.10;3.13;;;9.00;68.30;;;;;;5075145;28;20228;-64
2022/04/19 01:52:37;;;;;;;2.47;2.03;;;9.00;68.20;;;;;;5074589;28;20231;-64
2022/04/19 01:55:06;;;;;;;4.60;2.92;;;9.00;68.50;;;;;;5075201;28;20232;-64
2022/04/19 01:57:34;;;;;;;2.63;2.42;;;9.00;68.60;;;;;;5074674;28;20240;-63
2022/04/19 02:00:02;;;;;;;2.83;2.45;;;9.00;68.50;;;;;;5074947;28;20716;-64
2022/04/19 02:02:29;;;;;;;3.15;2.35;;;9.00;68.70;;;;;;5092044;27;20234;-64
2022/04/19 02:04:56;;;;;;;3.33;2.78;;;9.00;68.80;;;;;;5115604;28;20680;-64
2022/04/19 02:07:23;;;;;;;5.05;2.20;;;9.00;69.20;;;;;;5115269;28;20559;-63
2022/04/19 02:09:50;;;;;;;3.13;2.83;;;8.90;69.20;;;;;;5115595;28;20218;-63
2022/04/19 02:12:16;;;;;;;4.38;2.92;;;9.00;69.30;;;;;;5115483;27;20238;-64
2022/04/19 02:14:45;;;;;;;2.67;2.47;;;9.00;69.40;;;;;;5098631;28;20224;-63
2022/04/19 02:17:12;;;;;;;2.55;2.25;;;9.00;69.10;;;;;;5094797;28;20223;-64
2022/04/19 02:19:39;;;;;;;5.85;3.10;;;9.00;69.10;;;;;;5094371;28;20227;-63
2022/04/19 02:22:06;;;;;;;6.10;2.90;;;9.00;69.20;;;;;;5094771;28;20227;-64
2022/04/19 02:24:33;;;;;;;3.13;2.20;;;9.10;69.10;;;;;;5094372;28;20304;-64
2022/04/19 02:27:00;;;;;;;4.25;2.70;;;9.10;68.90;;;;;;5094812;28;20564;-63
2022/04/19 02:29:27;;;;;;;3.30;2.75;;;9.10;68.80;;;;;;5094296;28;20233;-63
2022/04/19 02:31:55;;;;;;;3.10;2.80;;;9.20;68.90;;;;;;5094897;28;20227;-63
2022/04/19 02:34:22;;;;;;;3.03;2.72;;;9.30;68.70;;;;;;5094417;28;20586;-63
2022/04/19 02:36:49;;;;;;;3.38;3.15;;;9.30;68.50;;;;;;5094485;28;20344;-63
2022/04/19 02:39:16;;;;;;;3.83;2.95;;;9.40;68.40;;;;;;5094650;28;20238;-63
2022/04/19 02:41:43;;;;;;;2.60;2.40;;;9.40;68.20;;;;;;5093378;28;20230;-63
2022/04/19 02:44:10;;;;;;;2.67;2.33;;;9.50;68.00;;;;;;5094654;28;20230;-63
2022/04/19 02:46:37;;;;;;;2.50;2.20;;;9.50;68.00;;;;;;5094055;28;20223;-62
2022/04/19 02:49:05;;;;;;;2.88;2.35;;;9.50;67.80;;;;;;5094414;28;20227;-63
2022/04/19 02:51:33;;;;;;;3.70;3.30;;;9.50;67.70;;;;;;5093559;28;20227;-63
2022/04/19 02:54:00;;;;;;;3.03;2.63;;;9.50;67.60;;;;;;5094356;28;20287;-63
2022/04/19 02:56:27;;;;;;;2.60;2.40;;;9.50;67.60;;;;;;5093651;28;20243;-63
2022/04/19 02:58:54;;;;;;;2.88;2.65;;;9.50;67.40;;;;;;5094034;28;20709;-63
2022/04/19 03:01:21;;;;;;;5.57;2.83;;;9.50;67.40;;;;;;5093902;28;20243;-63
2022/04/19 03:03:48;;;;;;;2.90;2.65;;;9.50;67.60;;;;;;5093623;28;20219;-63
2022/04/19 03:06:16;;;;;;;4.00;2.50;;;9.50;67.40;;;;;;5094190;28;20232;-63
2022/04/19 03:08:43;;;;;;;3.33;2.60;;;9.50;67.60;;;;;;5093672;28;20223;-63
2022/04/19 03:11:10;;;;;;;5.93;2.60;;;9.50;67.40;;;;;;5093842;28;20228;-63
2022/04/19 03:13:37;;;;;;;5.45;3.22;;;9.40;67.60;;;;;;5093474;28;20639;-64
2022/04/19 03:16:04;;;;;;;3.65;2.90;;;9.30;67.60;;;;;;5093800;28;20219;-63
2022/04/19 03:18:31;;;;;;;2.45;2.25;;;9.30;68.00;;;;;;5093436;28;20313;-63
2022/04/19 03:20:59;;;;;;;3.88;2.97;;;9.30;68.00;;;;;;5093770;28;20307;-63
2022/04/19 03:29:07;;;;;;;3.38;2.50;;;9.10;68.50;;;;;;5090945;28;20253;-63
2022/04/19 03:31:35;;;;;;;2.47;2.20;;;9.10;68.40;;;;;;5093025;28;20215;-63
2022/04/19 03:34:03;;;;;;;2.67;2.47;;;9.20;68.50;;;;;;5093454;28;20223;-63
2022/04/19 03:36:30;;;;;;;3.35;2.67;;;9.00;68.50;;;;;;5092972;28;20296;-63
2022/04/19 03:38:58;;;;;;;4.63;2.67;;;9.00;69.00;;;;;;5093347;28;20223;-63
2022/04/19 03:41:25;;;;;;;2.78;2.00;;;9.00;69.20;;;;;;5092755;28;20249;-64
2022/04/19 03:43:52;;;;;;;3.30;2.47;;;8.90;69.10;;;;;;5093386;28;20234;-63
2022/04/19 03:46:20;;;;;;;2.30;2.10;;;8.80;69.20;;;;;;5092762;28;20227;-63
2022/04/19 03:48:46;;;;;;;2.80;2.50;;;8.80;69.40;;;;;;5093277;28;20691;-63
2022/04/19 03:51:13;;;;;;;3.65;2.90;;;8.80;69.20;;;;;;5092279;28;20249;-63
2022/04/19 03:53:40;;;;;;;3.35;3.05;;;8.80;69.40;;;;;;5092850;28;20217;-63
2022/04/19 03:56:09;;;;;;;3.55;2.72;;;8.80;69.60;;;;;;5093319;28;20218;-63
2022/04/19 03:58:38;;;;;;;3.13;2.70;;;8.70;69.70;;;;;;5092566;28;20223;-63
2022/04/19 04:01:05;;;;;;;7.57;2.90;;;8.60;69.70;;;;;;5092935;28;20227;-63
2022/04/19 04:03:32;;;;;;;3.17;2.97;;;8.60;70.00;;;;;;5092487;28;20795;-63
2022/04/19 04:05:59;;;;;;;3.35;2.58;;;8.60;70.40;;;;;;5093030;28;20235;-64
2022/04/19 04:08:26;;;;;;;4.47;3.15;;;8.50;70.50;;;;;;5092623;28;20227;-64
2022/04/19 04:10:55;;;;;;;3.20;2.47;;;8.50;70.70;;;;;;5093106;28;20568;-63
2022/04/19 04:13:23;;;;;;;2.30;2.10;;;8.50;70.80;;;;;;5092508;28;20219;-63
2022/04/19 04:15:50;;;;;;;3.35;2.88;;;8.60;70.60;;;;;;5092794;28;20231;-63
2022/04/19 04:18:17;;;;;;;3.30;2.83;;;8.60;70.40;;;;;;5092450;28;20689;-63
2022/04/19 04:20:44;;;;;;;4.00;3.30;;;8.70;70.40;;;;;;5092790;28;20231;-64
2022/04/19 04:23:10;;;;;;;3.38;2.50;;;8.60;70.50;;;;;;5092854;28;20242;-63
2022/04/19 04:25:37;;;;;;;3.05;2.78;;;8.50;70.60;;;;;;5092623;28;20563;-63
2022/04/19 04:28:04;;;;;;;3.58;2.78;;;8.50;71.00;;;;;;5092805;28;20223;-63
2022/04/19 04:30:33;;;;;;;3.13;2.60;;;8.50;71.30;;;;;;5092226;28;20223;-63
2022/04/19 04:33:00;;;;;;;2.75;2.40;;;8.50;71.20;;;;;;5092557;28;20701;-63
2022/04/19 04:35:27;;;;;;;3.40;3.10;;;8.50;71.40;;;;;;5092187;28;20704;-62
2022/04/19 04:37:54;;;;;;;3.45;2.70;;;8.50;71.30;;;;;;5092834;28;20223;-63
2022/04/19 04:40:23;;;;;;;8.55;3.22;;;8.50;71.60;;;;;;5092272;28;20223;-63
2022/04/19 04:42:50;;;;;;;2.80;2.33;;;8.50;72.10;;;;;;5092681;28;20234;-63
2022/04/19 04:45:17;;;;;;;3.13;2.78;;;8.50;72.00;;;;;;5092271;28;20223;-63
2022/04/19 04:50:29;;;;;;;6.40;3.83;;;8.50;72.60;;;;;;5092005;28;20315;-62
2022/04/19 04:52:56;;;;;;;3.85;3.30;;;8.50;72.80;;;;;;5092685;28;20542;-64
2022/04/19 04:55:23;;;;;;;3.60;3.05;;;8.50;73.20;;;;;;5092059;28;20232;-63
2022/04/19 04:57:51;;;;;;;4.72;3.20;;;8.50;73.20;;;;;;5092363;28;20235;-63
2022/04/19 05:00:18;;;;;;;4.43;2.90;;;8.50;73.60;;;;;;5092173;28;20326;-63
2022/04/19 05:02:49;;;;;;;7.00;3.15;;;8.50;73.70;;;;;;5092775;28;20238;-63
2022/04/19 05:05:16;;;;;;;5.18;3.60;;;8.60;73.60;;;;;;5096405;28;20270;-62
2022/04/19 05:07:43;;;;;;;3.25;2.78;;;8.50;73.90;;;;;;5096066;28;20215;-62
2022/04/19 05:10:10;;;;;;;3.30;3.00;;;8.60;74.30;;;;;;5096128;28;20689;-63
2022/04/19 05:12:37;;;;;;;3.28;2.97;;;8.60;74.50;;;;;;5095709;28;20441;-63
2022/04/19 05:15:05;;;;;;;3.58;3.05;;;8.60;74.70;;;;;;5096303;28;20223;-63
2022/04/19 05:17:31;;;;;;;4.13;3.25;;;8.70;74.70;;;;;;5095505;28;20219;-63
2022/04/19 05:20:00;;;;;;;8.75;3.80;;;8.70;74.70;;;;;;5096045;28;20238;-63
2022/04/19 05:22:27;;;;;;;3.83;3.25;;;8.70;75.00;;;;;;5095575;28;20321;-63
2022/04/19 05:24:53;;;;;;;4.35;3.28;;;8.70;75.10;;;;;;5096083;28;20227;-64
2022/04/19 05:27:20;;;;;;;3.95;3.50;;;8.80;75.20;;;;;;5095388;28;20230;-63
2022/04/19 05:29:47;;;;;;;6.50;3.80;;;8.80;75.60;;;;;;5095888;28;20215;-63
2022/04/19 05:32:14;;;;;;;5.57;3.13;;;8.80;75.30;;;;;;5095650;28;20227;-64
2022/04/19 05:34:41;;;;;;;4.60;3.40;;;8.90;75.40;;;;;;5095309;28;20231;-65
2022/04/19 05:37:09;;;;;;;4.65;3.65;;;8.90;76.10;;;;;;5095886;28;20235;-64
2022/04/19 05:39:35;;;;;;;7.15;4.20;;;8.90;75.90;;;;;;5095329;28;20227;-64
2022/04/19 05:42:02;;;;;;;5.53;4.13;;;9.00;75.80;;;;;;5095662;28;20254;-64
2022/04/19 05:44:29;;;;;;;7.25;4.03;;;9.00;75.90;;;;;;5095205;28;20227;-63
2022/04/19 05:46:57;;;;;;;10.45;3.15;;;9.00;76.10;;;;;;5095376;28;20684;-62
2022/04/19 05:49:23;;;;;;;4.70;4.05;;;9.00;76.20;;;;;;5095004;28;20234;-63
2022/04/19 05:51:51;;;;;;;5.50;3.88;;;9.00;76.00;;;;;;5095340;28;20236;-64
2022/04/19 05:54:19;;;;;;;5.85;4.38;;;9.10;75.70;;;;;;5095349;28;20235;-64
2022/04/19 05:56:46;;;;;;;4.68;3.78;;;9.10;75.60;;;;;;5094775;27;20235;-64
2022/04/19 05:59:12;;;;;;;7.68;3.78;;;9.20;75.30;;;;;;5095333;28;20570;-63
2022/04/19 06:07:07;;;;;;;5.15;3.67;;;9.40;75.30;;;;;;5095129;28;20234;-65
2022/04/19 06:09:36;;;;;;;6.00;4.25;;;9.50;75.10;;;;;;5094783;28;20250;-65
2022/04/19 06:12:03;;;;;;;4.40;3.90;;;9.50;75.20;;;;;;5094850;28;20228;-62
2022/04/19 06:14:30;;;;;;;4.55;3.90;;;9.70;75.20;;;;;;5093776;28;20240;-63
2022/04/19 06:16:56;;;;;;;6.40;4.68;;;9.70;74.10;;;;;;5094980;28;20566;-64
2022/04/19 06:19:23;;;;;;;5.22;3.97;;;9.70;74.10;;;;;;5094576;28;20231;-63
2022/04/19 06:21:50;;;;;;;6.53;4.18;;;9.80;73.60;;;;;;5094787;28;20254;-63
2022/04/19 06:24:17;;;;;;;4.55;3.53;;;9.90;73.50;;;;;;5094833;28;20230;-63
2022/04/19 06:26:45;;;;;;;5.10;4.18;;;9.90;73.80;;;;;;5094179;28;20669;-63
2022/04/19 06:29:12;;;;;;;4.57;3.78;;;9.90;73.00;;;;;;5094788;28;20220;-64
2022/04/19 06:31:40;;;;;;;4.95;4.00;;;10.00;71.80;;;;;;5094313;28;20236;-64
2022/04/19 06:34:07;;;;;;;5.97;4.18;;;10.00;71.60;;;;;;5094625;28;20242;-63
2022/04/19 06:36:34;;;;;;;5.20;4.65;;;10.10;71.10;;;;;;5093930;28;20224;-64
2022/04/19 06:39:01;;;;;;;3.60;3.30;;;10.20;71.00;;;;;;5094575;28;20223;-63
2022/04/19 06:41:27;;;;;;;6.85;4.22;;;10.30;70.80;;;;;;5094079;28;20227;-63
2022/04/19 06:43:58;;;;;;;4.82;4.30;;;10.30;69.90;;;;;;5094511;28;20227;-63
2022/04/19 06:46:25;;;;;;;4.95;4.22;;;10.30;70.00;;;;;;5094113;28;20242;-63
2022/04/19 06:48:52;;;;;;;4.30;3.90;;;10.40;70.10;;;;;;5094617;28;20219;-63
2022/04/19 06:51:19;;;;;;;4.88;4.38;;;10.50;69.90;;;;;;5093966;28;20247;-63
2022/04/19 06:53:46;;;;;;;4.95;4.30;;;10.60;69.60;;;;;;5093883;28;20253;-63
2022/04/19 06:56:12;;;;;;;4.22;3.83;;;10.50;69.10;;;;;;5094067;28;20223;-63
2022/04/19 06:58:40;;;;;;;4.55;3.70;;;10.60;68.90;;;;;;5093833;28;20667;-63
2022/04/19 07:01:08;;;;;;;4.65;4.22;;;10.70;68.60;;;;;;5093889;28;20235;-64
2022/04/19 07:03:35;;;;;;;6.72;4.85;;;10.80;68.00;;;;;;5093442;28;20229;-63
2022/04/19 07:06:02;;;;;;;5.10;4.00;;;10.90;67.40;;;;;;5094187;28;20227;-63
2022/04/19 07:08:29;;;;;;;4.97;4.45;;;10.90;66.90;;;;;;5093517;28;20677;-63
2022/04/19 07:10:56;;;;;;;9.20;5.20;;;11.00;66.60;;;;;;5093740;28;20242;-63
2022/04/19 07:13:23;;;;;;;5.85;5.32;;;11.10;65.90;;;;;;5093796;28;20272;-62
2022/04/19 07:15:50;;;;;;;6.03;4.75;;;11.20;65.50;;;;;;5093329;28;20238;-63
2022/04/19 07:18:22;;;;;;;5.65;4.15;;;11.30;64.20;;;;;;5093611;28;20247;-64
2022/04/19 07:29:03;;;;;;;4.57;3.63;;;11.70;61.30;;;;;;5093952;28;20271;-63
2022/04/19 07:31:31;;;;;;;5.32;4.00;;;11.80;60.20;;;;;;5092937;28;20223;-62
2022/04/19 07:33:59;;;;;;;4.65;3.90;;;11.80;60.20;;;;;;5093513;28;20226;-63
2022/04/19 07:36:26;;;;;;;7.75;4.13;;;11.90;59.70;;;;;;5092995;28;20223;-62
2022/04/19 07:38:53;;;;;;;5.43;4.82;;;11.90;59.20;;;;;;5093437;28;20573;-63
2022/04/19 07:41:20;;;;;;;5.88;3.55;;;12.00;58.40;;;;;;5092768;28;20284;-64
2022/04/19 07:43:47;;;;;;;2.90;2.70;;;12.10;58.00;;;;;;5093627;28;20276;-64
2022/04/19 07:46:15;;;;;;;5.80;3.85;;;12.20;57.50;;;;;;5092807;28;20306;-62
2022/04/19 07:48:42;;;;;;;5.55;4.25;;;12.20;56.30;;;;;;5093240;28;20215;-63
2022/04/19 07:51:10;;;;;;;3.38;3.08;;;12.40;56.50;;;;;;5092888;28;20269;-63
2022/04/19 07:53:37;;;;;;;5.88;2.58;;;12.40;56.50;;;;;;5092753;28;20211;-63
2022/04/19 07:56:05;;;;;;;3.53;3.22;;;12.50;55.10;;;;;;5093005;28;20230;-63
2022/04/19 07:58:32;;;;;;;3.10;2.85;;;12.60;54.70;;;;;;5092597;28;20227;-62
2022/04/19 08:00:59;;;;;;;2.70;2.50;;;12.60;54.50;;;;;;5093012;28;20230;-63
2022/04/19 08:03:26;;;;;;;3.75;3.40;;;12.70;54.70;;;;;;5092443;28;20296;-63
2022/04/19 08:05:53;;;;;;;3.60;2.95;;;12.80;54.70;;;;;;5092886;28;20240;-63
2022/04/19 08:08:22;;;;;;;3.80;2.90;;;12.90;54.80;;;;;;5092598;28;20220;-63
2022/04/19 08:10:49;;;;;;;2.55;2.35;;;13.00;54.10;;;;;;5092867;28;20230;-63
2022/04/19 08:13:16;;;;;;;2.55;2.35;;;13.00;53.80;;;;;;5092473;28;20215;-64
2022/04/19 08:15:47;;;;;;;2.65;2.45;;;13.00;53.40;;;;;;5092735;28;20684;-63
2022/04/19 08:18:15;;;;;;;5.80;2.15;;;13.00;53.40;;;;;;5092798;28;20223;-63
2022/04/19 08:20:42;;;;;;;3.47;2.70;;;13.00;53.70;;;;;;5092523;28;20237;-64
2022/04/19 08:23:09;;;;;;;2.55;2.20;;;13.10;53.90;;;;;;5093002;28;20223;-63
2022/04/19 08:25:38;;;;;;;2.38;2.10;;;13.20;54.10;;;;;;5092644;28;20662;-63
2022/04/19 08:28:06;;;;;;;2.28;2.08;;;13.40;54.20;;;;;;5092736;28;20227;-63
2022/04/19 08:30:33;;;;;;;3.25;2.35;;;13.50;54.00;;;;;;5092124;28;20242;-63
2022/04/19 08:33:01;;;;;;;4.90;2.40;;;13.60;53.90;;;;;;5092850;28;20233;-63
2022/04/19 08:35:28;;;;;;;2.70;2.40;;;13.60;53.70;;;;;;5092305;28;20219;-63
2022/04/19 08:37:55;;;;;;;3.15;2.40;;;13.70;53.60;;;;;;5093449;28;20227;-63
2022/04/19 08:40:22;;;;;;;1.90;1.80;;;13.70;53.30;;;;;;5096497;28;20542;-63
2022/04/19 08:42:50;;;;;;;2.85;2.22;;;13.80;53.40;;;;;;5096487;28;20461;-63
2022/04/19 08:45:19;;;;;;;1.90;1.70;;;13.80;53.10;;;;;;5096867;28;20219;-63
2022/04/19 08:47:48;;;;;;;2.33;2.13;;;13.90;53.20;;;;;;5096400;28;21266;-63
2022/04/19 08:50:17;;;;;;;3.50;2.95;;;14.00;53.20;;;;;;5096522;28;20219;-63
2022/04/19 08:52:45;;;;;;;2.90;2.25;;;14.00;53.00;;;;;;5095999;28;20223;-63
2022/04/19 08:57:57;;;;;;;3.55;2.40;;;14.10;53.10;;;;;;5096242;28;20234;-63
2022/04/19 09:00:25;;;;;;;2.60;2.40;;;14.10;53.00;;;;;;5096488;28;20242;-64
2022/04/19 09:02:53;;;;;;;3.13;2.28;;;14.20;53.30;;;;;;5095781;28;20284;-63
2022/04/19 09:05:22;;;;;;;2.90;2.40;;;14.20;53.40;;;;;;5096648;28;20558;-63
2022/04/19 09:07:50;;;;;;;2.38;2.17;;;14.20;53.40;;;;;;5095383;28;20558;-63
2022/04/19 09:10:26;;;;;;;1.85;1.48;;;14.20;52.80;;;;;;5095467;28;20219;-64
2022/04/19 09:13:02;;;;;;;1.98;1.80;;;14.30;52.70;;;;;;5092381;28;20223;-64
2022/04/19 09:15:34;;;;;;;2.13;1.92;;;14.40;52.10;;;;;;5095204;28;20219;-64
2022/04/19 09:18:01;;;;;;;3.20;2.00;;;14.50;52.10;;;;;;5094860;28;20220;-62
2022/04/19 09:20:28;;;;;;;5.35;1.77;;;14.50;52.50;;;;;;5095312;28;20457;-63
2022/04/19 09:23:04;;;;;;;4.60;2.07;;;14.50;52.40;;;;;;5095225;28;20309;-63
2022/04/19 09:25:34;;;;;;;2.60;1.67;;;14.60;52.10;;;;;;5095957;28;20468;-63
2022/04/19 09:28:05;;;;;;;2.30;1.92;;;14.60;52.40;;;;;;5094016;28;20803;-63
2022/04/19 09:30:34;;;;;;;3.10;1.60;;;14.60;52.20;;;;;;5094685;28;20223;-62
2022/04/19 09:33:06;;;;;;;2.37;2.17;;;14.60;52.00;;;;;;5094415;28;20807;-63
2022/04/19 09:35:35;;;;;;;4.80;1.92;;;14.60;52.00;;;;;;5095525;28;20469;-63
2022/04/19 09:38:02;;;;;;;1.73;1.63;;;14.60;51.70;;;;;;5095042;28;20234;-63
2022/04/19 09:40:34;;;;;;;3.43;1.37;;;14.60;51.70;;;;;;5095063;28;20219;-63
2022/04/19 09:43:11;;;;;;;4.20;1.50;;;14.70;51.90;;;;;;5095023;28;20476;-63
2022/04/19 09:45:54;;;;;;;4.93;1.77;;;14.80;51.80;;;;;;5094954;28;20469;-63
2022/04/19 09:48:24;;;;;;;1.60;1.50;;;14.70;51.50;;;;;;5095536;28;20449;-64
2022/04/19 09:50:53;;;;;;;2.20;1.50;;;14.70;51.30;;;;;;5093947;28;20468;-63
2022/04/19 09:53:21;;;;;;;1.90;1.40;;;14.80;50.50;;;;;;5095448;28;20473;-64
2022/04/19 09:55:49;;;;;;;1.97;1.80;;;14.80;50.60;;;;;;5094798;28;20469;-63
2022/04/19 09:58:18;;;;;;;2.03;1.80;;;14.90;50.00;;;;;;5095385;28;20470;-63
2022/04/19 10:00:46;;;;;;;2.50;1.43;;;15.00;49.60;;;;;;5094752;28;20544;-63
2022/04/19 10:09:00;;;;;;;2.50;1.20;;;14.90;50.30;;;;;;5094743;28;20461;-63
2022/04/19 10:11:29;;;;;;;3.33;1.67;;;15.00;50.20;;;;;;5095013;28;20538;-63
2022/04/19 10:13:58;;;;;;;2.90;1.80;;;15.10;50.50;;;;;;5094497;28;20466;-64
2022/04/19 10:16:28;;;;;;;3.00;2.10;;;15.30;50.20;;;;;;5094774;28;20473;-64
2022/04/19 10:18:55;;;;;;;1.60;1.50;;;15.30;49.80;;;;;;5094448;28;20457;-64
2022/04/19 10:21:25;;;;;;;1.20;1.10;;;15.40;50.00;;;;;;5094833;28;20480;-64
2022/04/19 10:24:08;;;;;;;1.90;1.80;;;15.40;50.70;;;;;;5094432;28;20492;-64
2022/04/19 10:26:43;;;;;;;2.33;1.70;;;15.50;49.70;;;;;;5095014;28;20465;-63
2022/04/19 10:29:20;;;;;;;1.87;1.77;;;15.60;49.80;;;;;;5094399;28;20463;-63
2022/04/19 10:32:01;;;;;;;1.30;1.20;;;15.60;49.60;;;;;;5093974;28;20461;-63
2022/04/19 10:34:29;;;;;;;1.50;1.30;;;15.70;50.00;;;;;;5094712;28;20461;-62
2022/04/19 10:37:02;;;;;;;3.07;1.77;;;15.80;49.30;;;;;;5094300;28;20481;-64
2022/04/19 10:39:32;;;;;;;3.27;1.80;;;15.80;48.30;;;;;;5094569;28;20543;-63
2022/04/19 10:42:00;;;;;;;1.77;1.67;;;15.80;48.50;;;;;;5094098;28;20870;-63
2022/04/19 10:44:30;;;;;;;2.73;1.73;;;15.80;48.50;;;;;;5094517;28;20465;-63
2022/04/19 10:47:11;;;;;;;1.70;1.60;;;15.60;48.60;;;;;;5094100;28;20519;-63
2022/04/19 10:49:57;;;;;;;2.23;2.10;;;15.60;48.50;;;;;;5094403;28;20556;-63
2022/04/19 10:52:46;;;;;;;2.20;1.60;;;15.70;48.80;;;;;;5094338;28;20469;-65
2022/04/19 10:55:19;;;;;;;2.20;1.80;;;15.70;48.90;;;;;;5094237;28;20990;-63
2022/04/19 11:00:38;;;;;;;2.80;1.70;;;15.80;48.70;;;;;;5093501;28;20890;-64
2022/04/19 11:03:06;;;;;;;4.63;2.20;;;15.80;48.60;;;;;;5094021;28;20465;-63
2022/04/19 11:05:41;;;;;;;3.07;1.70;;;15.90;48.40;;;;;;5093727;28;20454;-63
2022/04/19 11:08:33;;;;;;;1.70;1.60;;;15.90;48.40;;;;;;5093796;28;20472;-64
2022/04/19 11:11:23;;;;;;;3.10;1.50;;;15.90;48.40;;;;;;5092546;28;21046;-65
2022/04/19 11:14:22;;;;;;;4.83;1.33;;;15.90;47.90;;;;;;5093432;28;20535;-65
2022/04/19 11:16:53;;;;;;;1.57;1.40;;;15.80;48.10;;;;;;5093609;28;20481;-64
2022/04/19 11:19:23;;;;;;;2.40;1.63;;;15.60;47.90;;;;;;5092973;28;20453;-64
2022/04/19 11:21:53;;;;;;;1.93;1.80;;;15.60;48.50;;;;;;5088704;28;20830;-64
2022/04/19 11:24:57;;;;;;;1.93;1.70;;;15.50;48.50;;;;;;5071347;28;20462;-64
2022/04/19 11:27:24;;;;;;;2.73;1.73;;;15.40;48.50;;;;;;5071308;28;20515;-64
2022/04/19 11:29:52;;;;;;;2.30;2.10;;;15.40;49.10;;;;;;5071746;28;20466;-64
2022/04/19 11:32:24;;;;;;;3.90;1.70;;;15.40;49.30;;;;;;5072475;28;20477;-64
2022/04/19 11:34:58;;;;;;;1.83;1.60;;;15.40;49.00;;;;;;5073211;28;20462;-64
2022/04/19 11:37:25;;;;;;;2.27;1.80;;;15.40;49.20;;;;;;5073098;28;20512;-64
2022/04/19 11:48:09;;;;;;;2.23;1.50;;;15.60;49.60;;;;;;5092541;28;20488;-64
2022/04/19 11:50:36;;;;;;;2.80;2.10;;;15.70;49.40;;;;;;5089560;28;21010;-64
2022/04/19 11:53:03;;;;;;;4.20;2.30;;;15.70;49.20;;;;;;5072717;28;20462;-64
2022/04/19 11:55:30;;;;;;;2.40;2.20;;;15.70;49.10;;;;;;5083343;28;20947;-64
2022/04/19 11:58:04;;;;;;;3.20;2.23;;;15.80;49.50;;;;;;5093045;28;20473;-64
2022/04/19 12:00:31;;;;;;;2.50;2.30;;;15.70;49.40;;;;;;5082639;28;20464;-64
2022/04/19 12:02:58;;;;;;;2.13;2.03;;;15.70;49.60;;;;;;5089803;28;20513;-64
2022/04/19 12:05:27;;;;;;;2.43;1.93;;;15.70;50.00;;;;;;5092677;28;20465;-64
2022/04/19 12:07:55;;;;;;;5.03;2.10;;;15.70;49.90;;;;;;5092879;28;20476;-64
2022/04/19 12:10:23;;;;;;;2.63;1.80;;;15.70;50.10;;;;;;5092334;28;20461;-64
2022/04/19 12:12:50;;;;;;;3.50;1.70;;;15.80;50.40;;;;;;5089420;28;20469;-64
2022/04/19 12:15:38;;;;;;;2.17;1.97;;;15.80;50.50;;;;;;5076983;28;20458;-63
2022/04/19 12:18:05;;;;;;;1.80;1.70;;;15.80;50.40;;;;;;5082169;28;20861;-64
2022/04/19 12:20:43;;;;;;;3.10;2.33;;;15.70;50.50;;;;;;5082680;28;20784;-64
2022/04/19 12:23:18;;;;;;;2.90;1.73;;;15.70;50.90;;;;;;5087637;28;20488;-64
2022/04/19 12:26:04;;;;;;;3.30;2.00;;;15.70;50.90;;;;;;5087405;28;20524;-63
2022/04/19 12:28:39;;;;;;;4.60;2.70;;;15.70;51.10;;;;;;5086393;28;20460;-63
2022/04/19 12:31:06;;;;;;;2.53;2.00;;;15.70;51.20;;;;;;5089340;28;20464;-63
2022/04/19 12:33:34;;;;;;;2.63;2.43;;;15.70;51.20;;;;;;5091409;28;20462;-63
2022/04/19 12:36:02;;;;;;;4.40;2.13;;;15.70;51.30;;;;;;5090174;28;20481;-64
2022/04/19 12:38:31;;;;;;;3.30;2.77;;;15.70;51.40;;;;;;5090400;28;20803;-63
2022/04/19 12:40:59;;;;;;;2.40;2.20;;;15.70;51.70;;;;;;5091911;28;20478;-63
2022/04/19 12:43:47;;;;;;;3.30;2.63;;;15.60;51.40;;;;;;5091784;28;20479;-63
2022/04/19 12:46:14;;;;;;;2.30;2.10;;;15.60;51.80;;;;;;5087843;28;20481;-64
2022/04/19 12:48:52;;;;;;;3.70;3.30;;;15.60;51.70;;;;;;5082846;28;20457;-63
2022/04/19 12:51:25;;;;;;;2.70;2.50;;;15.50;51.90;;;;;;5083896;28;20519;-63
2022/04/19 12:54:05;;;;;;;3.50;1.80;;;15.50;51.90;;;;;;5092370;28;20526;-63
2022/04/19 12:59:16;;;;;;;6.20;2.77;;;15.50;51.90;;;;;;5091527;28;20483;-63
2022/04/19 13:01:44;;;;;;;3.20;2.47;;;15.50;51.80;;;;;;5089765;28;20484;-63
2022/04/19 13:04:11;;;;;;;2.60;1.93;;;15.60;52.00;;;;;;5085943;28;20469;-64
2022/04/19 13:12:20;;;;;;;2.03;1.80;;;15.90;52.10;;;;;;5087565;28;20468;-64
2022/04/19 13:14:49;;;;;;;3.43;1.90;;;16.00;52.10;;;;;;5076085;28;20445;-64
2022/04/19 13:17:18;;;;;;;2.60;1.70;;;16.10;51.90;;;;;;5069913;28;20482;-64
2022/04/19 13:19:46;;;;;;;1.50;1.40;;;16.10;50.90;;;;;;5079339;28;20884;-63
2022/04/19 13:22:14;;;;;;;3.57;2.47;;;16.00;50.30;;;;;;5080543;28;21064;-63
2022/04/19 13:24:42;;;;;;;2.20;1.90;;;16.00;50.20;;;;;;5084036;28;20859;-64
2022/04/19 13:27:10;;;;;;;1.60;1.47;;;16.00;50.50;;;;;;5081691;28;20844;-64
2022/04/19 13:29:38;;;;;;;1.87;1.70;;;16.00;50.70;;;;;;5081578;28;20799;-63
2022/04/19 13:32:07;;;;;;;1.53;1.37;;;16.00;51.10;;;;;;5083290;28;20481;-64
2022/04/19 13:34:34;;;;;;;3.57;2.10;;;16.00;51.40;;;;;;5082522;28;20481;-64
2022/04/19 13:37:02;;;;;;;1.70;1.60;;;16.10;51.30;;;;;;5081104;28;20473;-64
2022/04/19 13:39:30;;;;;;;1.87;1.53;;;16.10;51.00;;;;;;5083789;28;20469;-64
2022/04/19 13:41:57;;;;;;;2.80;2.60;;;16.10;50.90;;;;;;5083768;28;20491;-64
2022/04/19 13:44:24;;;;;;;1.70;1.60;;;16.10;50.80;;;;;;5079757;28;20473;-64
2022/04/19 13:46:52;;;;;;;1.70;1.60;;;16.20;50.70;;;;;;5077000;28;20477;-64
2022/04/19 13:49:20;;;;;;;2.03;1.90;;;16.20;50.90;;;;;;5087085;28;20470;-64
2022/04/19 13:51:47;;;;;;;1.67;1.57;;;16.20;50.80;;;;;;5081243;28;20457;-64